sensor_id;sensor_type;location;lat;lon;timestamp;P1;durP1;ratioP1;P2;durP2;ratioP2
3433;SDS011;1730;41.932;25.548;2023-05-07T00:01:48;5.70;;;5.10;;
3433;SDS011;1730;41.932;25.548;2023-05-07T00:04:13;6.27;;;5.67;;
3433;SDS011;1730;41.932;25.548;2023-05-07T00:06:39;5.20;;;4.90;;
3433;SDS011;1730;41.932;25.548;2023-05-07T00:09:05;5.70;;;5.30;;
3433;SDS011;1730;41.932;25.548;2023-05-07T00:11:31;6.40;;;5.90;;
3433;SDS011;1730;41.932;25.548;2023-05-07T00:13:56;6.67;;;6.17;;
3433;SDS011;1730;41.932;25.548;2023-05-07T00:16:22;7.73;;;6.03;;
3433;SDS011;1730;41.932;25.548;2023-05-07T00:18:47;9.33;;;5.47;;
3433;SDS011;1730;41.932;25.548;2023-05-07T00:21:13;6.70;;;6.10;;
3433;SDS011;1730;41.932;25.548;2023-05-07T00:23:39;9.00;;;5.77;;
3433;SDS011;1730;41.932;25.548;2023-05-07T00:26:04;7.87;;;6.53;;
3433;SDS011;1730;41.932;25.548;2023-05-07T00:28:30;6.90;;;6.20;;
3433;SDS011;1730;41.932;25.548;2023-05-07T00:30:55;8.90;;;6.30;;
3433;SDS011;1730;41.932;25.548;2023-05-07T00:33:21;8.00;;;6.70;;
3433;SDS011;1730;41.932;25.548;2023-05-07T00:35:47;8.37;;;6.87;;
3433;SDS011;1730;41.932;25.548;2023-05-07T00:38:13;9.07;;;7.10;;
3433;SDS011;1730;41.932;25.548;2023-05-07T00:40:38;6.70;;;5.90;;
3433;SDS011;1730;41.932;25.548;2023-05-07T00:43:04;6.97;;;6.37;;
3433;SDS011;1730;41.932;25.548;2023-05-07T00:45:29;6.80;;;6.30;;
3433;SDS011;1730;41.932;25.548;2023-05-07T00:47:55;6.80;;;6.30;;
3433;SDS011;1730;41.932;25.548;2023-05-07T00:50:24;7.70;;;6.67;;
3433;SDS011;1730;41.932;25.548;2023-05-07T00:52:51;8.53;;;6.97;;
3433;SDS011;1730;41.932;25.548;2023-05-07T00:55:17;7.77;;;7.00;;
3433;SDS011;1730;41.932;25.548;2023-05-07T00:57:43;8.90;;;6.70;;
3433;SDS011;1730;41.932;25.548;2023-05-07T01:00:10;7.30;;;6.60;;
3433;SDS011;1730;41.932;25.548;2023-05-07T01:02:38;11.23;;;6.53;;
3433;SDS011;1730;41.932;25.548;2023-05-07T01:05:04;7.30;;;6.60;;
3433;SDS011;1730;41.932;25.548;2023-05-07T01:07:32;8.73;;;7.13;;
3433;SDS011;1730;41.932;25.548;2023-05-07T01:09:59;10.60;;;7.73;;
3433;SDS011;1730;41.932;25.548;2023-05-07T01:12:26;9.53;;;6.60;;
3433;SDS011;1730;41.932;25.548;2023-05-07T01:14:53;11.27;;;7.77;;
3433;SDS011;1730;41.932;25.548;2023-05-07T01:17:18;7.70;;;7.10;;
3433;SDS011;1730;41.932;25.548;2023-05-07T01:19:44;11.00;;;9.33;;
3433;SDS011;1730;41.932;25.548;2023-05-07T01:22:10;14.40;;;9.03;;
3433;SDS011;1730;41.932;25.548;2023-05-07T01:24:37;9.80;;;8.47;;
3433;SDS011;1730;41.932;25.548;2023-05-07T01:27:03;7.83;;;7.13;;
3433;SDS011;1730;41.932;25.548;2023-05-07T01:29:29;8.57;;;7.87;;
3433;SDS011;1730;41.932;25.548;2023-05-07T01:31:58;7.53;;;6.83;;
3433;SDS011;1730;41.932;25.548;2023-05-07T01:34:26;8.23;;;7.53;;
3433;SDS011;1730;41.932;25.548;2023-05-07T01:36:55;9.23;;;7.30;;
3433;SDS011;1730;41.932;25.548;2023-05-07T01:39:24;7.63;;;7.03;;
3433;SDS011;1730;41.932;25.548;2023-05-07T01:41:52;8.77;;;6.90;;
3433;SDS011;1730;41.932;25.548;2023-05-07T01:44:19;8.20;;;7.40;;
3433;SDS011;1730;41.932;25.548;2023-05-07T01:46:45;12.70;;;7.00;;
3433;SDS011;1730;41.932;25.548;2023-05-07T01:49:12;11.93;;;7.07;;
3433;SDS011;1730;41.932;25.548;2023-05-07T01:51:38;13.40;;;8.33;;
3433;SDS011;1730;41.932;25.548;2023-05-07T01:54:05;11.53;;;7.93;;
3433;SDS011;1730;41.932;25.548;2023-05-07T01:56:31;8.47;;;7.67;;
3433;SDS011;1730;41.932;25.548;2023-05-07T01:58:57;10.23;;;7.67;;
3433;SDS011;1730;41.932;25.548;2023-05-07T02:01:22;7.87;;;7.23;;
3433;SDS011;1730;41.932;25.548;2023-05-07T02:03:48;8.17;;;7.47;;
3433;SDS011;1730;41.932;25.548;2023-05-07T02:06:14;14.00;;;7.50;;
3433;SDS011;1730;41.932;25.548;2023-05-07T02:08:39;9.30;;;8.30;;
3433;SDS011;1730;41.932;25.548;2023-05-07T02:11:05;8.80;;;7.37;;
3433;SDS011;1730;41.932;25.548;2023-05-07T02:13:31;9.73;;;8.20;;
3433;SDS011;1730;41.932;25.548;2023-05-07T02:15:59;8.63;;;7.73;;
3433;SDS011;1730;41.932;25.548;2023-05-07T02:18:25;8.67;;;7.90;;
3433;SDS011;1730;41.932;25.548;2023-05-07T02:20:50;9.43;;;8.37;;
3433;SDS011;1730;41.932;25.548;2023-05-07T02:23:16;8.50;;;7.73;;
3433;SDS011;1730;41.932;25.548;2023-05-07T02:25:41;9.10;;;7.50;;
3433;SDS011;1730;41.932;25.548;2023-05-07T02:28:07;10.77;;;9.30;;
3433;SDS011;1730;41.932;25.548;2023-05-07T02:30:32;12.67;;;8.10;;
3433;SDS011;1730;41.932;25.548;2023-05-07T02:32:58;9.60;;;8.70;;
3433;SDS011;1730;41.932;25.548;2023-05-07T02:35:24;10.87;;;8.20;;
3433;SDS011;1730;41.932;25.548;2023-05-07T02:37:50;12.33;;;8.87;;
3433;SDS011;1730;41.932;25.548;2023-05-07T02:40:15;9.23;;;8.33;;
3433;SDS011;1730;41.932;25.548;2023-05-07T02:42:41;12.77;;;8.43;;
3433;SDS011;1730;41.932;25.548;2023-05-07T02:45:07;9.93;;;8.43;;
3433;SDS011;1730;41.932;25.548;2023-05-07T02:47:33;9.87;;;8.87;;
3433;SDS011;1730;41.932;25.548;2023-05-07T02:49:58;12.80;;;8.37;;
3433;SDS011;1730;41.932;25.548;2023-05-07T02:52:23;11.17;;;8.57;;
3433;SDS011;1730;41.932;25.548;2023-05-07T02:54:49;10.00;;;9.10;;
3433;SDS011;1730;41.932;25.548;2023-05-07T02:57:14;10.83;;;9.00;;
3433;SDS011;1730;41.932;25.548;2023-05-07T02:59:41;10.00;;;9.13;;
3433;SDS011;1730;41.932;25.548;2023-05-07T03:02:07;12.27;;;8.80;;
3433;SDS011;1730;41.932;25.548;2023-05-07T03:04:32;10.43;;;9.43;;
3433;SDS011;1730;41.932;25.548;2023-05-07T03:06:58;12.80;;;8.20;;
3433;SDS011;1730;41.932;25.548;2023-05-07T03:09:23;9.57;;;8.57;;
3433;SDS011;1730;41.932;25.548;2023-05-07T03:11:49;10.50;;;9.33;;
3433;SDS011;1730;41.932;25.548;2023-05-07T03:14:15;14.70;;;9.60;;
3433;SDS011;1730;41.932;25.548;2023-05-07T03:16:40;10.47;;;9.50;;
3433;SDS011;1730;41.932;25.548;2023-05-07T03:19:06;12.60;;;9.07;;
3433;SDS011;1730;41.932;25.548;2023-05-07T03:21:31;11.13;;;10.03;;
3433;SDS011;1730;41.932;25.548;2023-05-07T03:23:59;11.57;;;9.93;;
3433;SDS011;1730;41.932;25.548;2023-05-07T03:26:24;11.20;;;10.00;;
3433;SDS011;1730;41.932;25.548;2023-05-07T03:28:50;12.73;;;8.57;;
3433;SDS011;1730;41.932;25.548;2023-05-07T03:31:16;10.53;;;9.43;;
3433;SDS011;1730;41.932;25.548;2023-05-07T03:36:18;8.97;;;8.10;;
3433;SDS011;1730;41.932;25.548;2023-05-07T03:38:43;8.77;;;7.90;;
3433;SDS011;1730;41.932;25.548;2023-05-07T03:41:09;11.00;;;8.53;;
3433;SDS011;1730;41.932;25.548;2023-05-07T03:43:34;8.50;;;7.80;;
3433;SDS011;1730;41.932;25.548;2023-05-07T03:46:00;9.10;;;7.80;;
3433;SDS011;1730;41.932;25.548;2023-05-07T03:48:25;8.10;;;7.30;;
3433;SDS011;1730;41.932;25.548;2023-05-07T03:50:51;8.80;;;7.20;;
3433;SDS011;1730;41.932;25.548;2023-05-07T03:53:16;11.23;;;7.10;;
3433;SDS011;1730;41.932;25.548;2023-05-07T03:55:42;7.47;;;6.73;;
3433;SDS011;1730;41.932;25.548;2023-05-07T03:58:08;7.57;;;6.67;;
3433;SDS011;1730;41.932;25.548;2023-05-07T04:00:33;7.20;;;6.07;;
3433;SDS011;1730;41.932;25.548;2023-05-07T04:03:03;7.37;;;6.70;;
3433;SDS011;1730;41.932;25.548;2023-05-07T04:05:29;7.20;;;6.70;;
3433;SDS011;1730;41.932;25.548;2023-05-07T04:07:55;7.17;;;6.50;;
3433;SDS011;1730;41.932;25.548;2023-05-07T04:10:22;6.03;;;5.50;;
3433;SDS011;1730;41.932;25.548;2023-05-07T04:12:49;6.93;;;5.80;;
3433;SDS011;1730;41.932;25.548;2023-05-07T04:15:14;6.60;;;5.90;;
3433;SDS011;1730;41.932;25.548;2023-05-07T04:17:41;7.83;;;5.50;;
3433;SDS011;1730;41.932;25.548;2023-05-07T04:20:12;6.70;;;6.10;;
3433;SDS011;1730;41.932;25.548;2023-05-07T04:22:39;13.47;;;6.07;;
3433;SDS011;1730;41.932;25.548;2023-05-07T04:25:06;6.37;;;5.27;;
3433;SDS011;1730;41.932;25.548;2023-05-07T04:27:33;7.27;;;5.90;;
3433;SDS011;1730;41.932;25.548;2023-05-07T04:29:58;5.37;;;4.93;;
3433;SDS011;1730;41.932;25.548;2023-05-07T04:32:26;5.33;;;4.87;;
3433;SDS011;1730;41.932;25.548;2023-05-07T04:34:51;7.80;;;4.70;;
3433;SDS011;1730;41.932;25.548;2023-05-07T04:37:17;8.80;;;5.17;;
3433;SDS011;1730;41.932;25.548;2023-05-07T04:39:42;12.50;;;4.80;;
3433;SDS011;1730;41.932;25.548;2023-05-07T04:42:08;4.93;;;4.40;;
3433;SDS011;1730;41.932;25.548;2023-05-07T04:44:34;4.77;;;4.47;;
3433;SDS011;1730;41.932;25.548;2023-05-07T04:47:00;5.53;;;4.47;;
3433;SDS011;1730;41.932;25.548;2023-05-07T04:49:26;4.63;;;4.20;;
3433;SDS011;1730;41.932;25.548;2023-05-07T04:51:51;4.73;;;4.30;;
3433;SDS011;1730;41.932;25.548;2023-05-07T04:54:17;5.70;;;4.10;;
3433;SDS011;1730;41.932;25.548;2023-05-07T04:56:44;6.30;;;4.20;;
3433;SDS011;1730;41.932;25.548;2023-05-07T04:59:09;4.60;;;4.20;;
3433;SDS011;1730;41.932;25.548;2023-05-07T05:01:35;7.10;;;5.63;;
3433;SDS011;1730;41.932;25.548;2023-05-07T05:04:00;5.83;;;4.60;;
3433;SDS011;1730;41.932;25.548;2023-05-07T05:06:26;5.43;;;4.60;;
3433;SDS011;1730;41.932;25.548;2023-05-07T05:08:51;6.27;;;5.00;;
3433;SDS011;1730;41.932;25.548;2023-05-07T05:11:17;4.77;;;4.37;;
3433;SDS011;1730;41.932;25.548;2023-05-07T05:13:42;4.97;;;4.67;;
3433;SDS011;1730;41.932;25.548;2023-05-07T05:16:08;8.97;;;5.00;;
3433;SDS011;1730;41.932;25.548;2023-05-07T05:18:34;6.43;;;4.60;;
3433;SDS011;1730;41.932;25.548;2023-05-07T05:20:59;9.90;;;4.23;;
3433;SDS011;1730;41.932;25.548;2023-05-07T05:23:25;9.10;;;5.07;;
3433;SDS011;1730;41.932;25.548;2023-05-07T05:25:55;7.93;;;4.23;;
3433;SDS011;1730;41.932;25.548;2023-05-07T05:28:24;4.50;;;4.20;;
3433;SDS011;1730;41.932;25.548;2023-05-07T05:30:49;5.97;;;4.40;;
3433;SDS011;1730;41.932;25.548;2023-05-07T05:33:15;8.57;;;5.07;;
3433;SDS011;1730;41.932;25.548;2023-05-07T05:35:41;12.07;;;4.90;;
3433;SDS011;1730;41.932;25.548;2023-05-07T05:38:06;5.30;;;4.83;;
3433;SDS011;1730;41.932;25.548;2023-05-07T05:40:32;5.90;;;5.03;;
3433;SDS011;1730;41.932;25.548;2023-05-07T05:42:58;8.70;;;6.00;;
3433;SDS011;1730;41.932;25.548;2023-05-07T05:45:24;5.40;;;5.00;;
3433;SDS011;1730;41.932;25.548;2023-05-07T05:47:50;5.70;;;4.77;;
3433;SDS011;1730;41.932;25.548;2023-05-07T05:50:15;8.70;;;5.00;;
3433;SDS011;1730;41.932;25.548;2023-05-07T05:52:41;5.83;;;4.40;;
3433;SDS011;1730;41.932;25.548;2023-05-07T05:55:07;6.70;;;5.20;;
3433;SDS011;1730;41.932;25.548;2023-05-07T05:57:33;9.70;;;4.87;;
3433;SDS011;1730;41.932;25.548;2023-05-07T06:00:00;4.90;;;4.33;;
3433;SDS011;1730;41.932;25.548;2023-05-07T06:02:26;5.37;;;4.83;;
3433;SDS011;1730;41.932;25.548;2023-05-07T06:04:51;6.80;;;5.00;;
3433;SDS011;1730;41.932;25.548;2023-05-07T06:07:17;5.00;;;4.60;;
3433;SDS011;1730;41.932;25.548;2023-05-07T06:09:44;11.57;;;5.30;;
3433;SDS011;1730;41.932;25.548;2023-05-07T06:12:11;5.00;;;4.60;;
3433;SDS011;1730;41.932;25.548;2023-05-07T06:14:36;5.27;;;4.77;;
3433;SDS011;1730;41.932;25.548;2023-05-07T06:17:02;4.60;;;4.30;;
3433;SDS011;1730;41.932;25.548;2023-05-07T06:19:27;5.37;;;4.90;;
3433;SDS011;1730;41.932;25.548;2023-05-07T06:21:53;7.93;;;4.63;;
3433;SDS011;1730;41.932;25.548;2023-05-07T06:24:19;5.67;;;5.23;;
3433;SDS011;1730;41.932;25.548;2023-05-07T06:26:45;4.50;;;4.10;;
3433;SDS011;1730;41.932;25.548;2023-05-07T06:29:10;4.93;;;4.57;;
3433;SDS011;1730;41.932;25.548;2023-05-07T06:31:36;4.57;;;3.93;;
3433;SDS011;1730;41.932;25.548;2023-05-07T06:34:01;6.87;;;4.47;;
3433;SDS011;1730;41.932;25.548;2023-05-07T06:36:27;5.80;;;4.43;;
3433;SDS011;1730;41.932;25.548;2023-05-07T06:38:53;10.80;;;4.83;;
3433;SDS011;1730;41.932;25.548;2023-05-07T06:41:19;4.37;;;3.97;;
3433;SDS011;1730;41.932;25.548;2023-05-07T06:43:45;4.50;;;4.10;;
3433;SDS011;1730;41.932;25.548;2023-05-07T06:46:11;5.20;;;4.70;;
3433;SDS011;1730;41.932;25.548;2023-05-07T06:48:36;10.17;;;4.70;;
3433;SDS011;1730;41.932;25.548;2023-05-07T06:51:04;5.60;;;5.00;;
3433;SDS011;1730;41.932;25.548;2023-05-07T06:53:30;7.03;;;5.03;;
3433;SDS011;1730;41.932;25.548;2023-05-07T06:55:56;7.10;;;5.30;;
3433;SDS011;1730;41.932;25.548;2023-05-07T06:58:21;5.10;;;4.60;;
3433;SDS011;1730;41.932;25.548;2023-05-07T07:00:47;4.53;;;4.20;;
3433;SDS011;1730;41.932;25.548;2023-05-07T07:03:13;10.43;;;4.23;;
3433;SDS011;1730;41.932;25.548;2023-05-07T07:05:39;8.10;;;4.40;;
3433;SDS011;1730;41.932;25.548;2023-05-07T07:08:06;5.80;;;4.17;;
3433;SDS011;1730;41.932;25.548;2023-05-07T07:10:31;5.60;;;4.10;;
3433;SDS011;1730;41.932;25.548;2023-05-07T07:12:56;7.17;;;4.20;;
3433;SDS011;1730;41.932;25.548;2023-05-07T07:15:22;3.93;;;3.53;;
3433;SDS011;1730;41.932;25.548;2023-05-07T07:17:49;6.67;;;4.17;;
3433;SDS011;1730;41.932;25.548;2023-05-07T07:20:15;6.40;;;4.03;;
3433;SDS011;1730;41.932;25.548;2023-05-07T07:22:41;5.97;;;4.20;;
3433;SDS011;1730;41.932;25.548;2023-05-07T07:25:06;5.40;;;3.37;;
3433;SDS011;1730;41.932;25.548;2023-05-07T07:27:32;4.77;;;3.63;;
3433;SDS011;1730;41.932;25.548;2023-05-07T07:29:58;8.70;;;3.90;;
3433;SDS011;1730;41.932;25.548;2023-05-07T07:32:23;4.53;;;3.93;;
3433;SDS011;1730;41.932;25.548;2023-05-07T07:34:49;4.03;;;3.73;;
3433;SDS011;1730;41.932;25.548;2023-05-07T07:37:14;4.30;;;3.47;;
3433;SDS011;1730;41.932;25.548;2023-05-07T07:39:40;5.17;;;3.90;;
3433;SDS011;1730;41.932;25.548;2023-05-07T07:42:06;6.57;;;4.10;;
3433;SDS011;1730;41.932;25.548;2023-05-07T07:44:31;4.60;;;4.20;;
3433;SDS011;1730;41.932;25.548;2023-05-07T07:46:57;4.97;;;4.13;;
3433;SDS011;1730;41.932;25.548;2023-05-07T07:49:22;8.57;;;4.57;;
3433;SDS011;1730;41.932;25.548;2023-05-07T07:51:49;5.77;;;4.10;;
3433;SDS011;1730;41.932;25.548;2023-05-07T07:54:16;5.83;;;4.47;;
3433;SDS011;1730;41.932;25.548;2023-05-07T07:56:41;5.07;;;4.13;;
3433;SDS011;1730;41.932;25.548;2023-05-07T07:59:07;4.87;;;4.30;;
3433;SDS011;1730;41.932;25.548;2023-05-07T08:01:33;10.20;;;4.43;;
3433;SDS011;1730;41.932;25.548;2023-05-07T08:03:58;4.30;;;3.90;;
3433;SDS011;1730;41.932;25.548;2023-05-07T08:06:24;7.33;;;4.60;;
3433;SDS011;1730;41.932;25.548;2023-05-07T08:08:51;5.23;;;3.90;;
3433;SDS011;1730;41.932;25.548;2023-05-07T08:11:17;5.90;;;4.30;;
3433;SDS011;1730;41.932;25.548;2023-05-07T08:13:42;6.33;;;3.97;;
3433;SDS011;1730;41.932;25.548;2023-05-07T08:16:08;4.20;;;3.80;;
3433;SDS011;1730;41.932;25.548;2023-05-07T08:18:34;4.67;;;4.27;;
3433;SDS011;1730;41.932;25.548;2023-05-07T08:21:00;4.57;;;3.60;;
3433;SDS011;1730;41.932;25.548;2023-05-07T08:23:26;5.03;;;3.90;;
3433;SDS011;1730;41.932;25.548;2023-05-07T08:25:51;5.20;;;3.97;;
3433;SDS011;1730;41.932;25.548;2023-05-07T08:28:17;4.30;;;4.00;;
3433;SDS011;1730;41.932;25.548;2023-05-07T08:30:42;3.70;;;3.40;;
3433;SDS011;1730;41.932;25.548;2023-05-07T08:33:10;6.00;;;3.47;;
3433;SDS011;1730;41.932;25.548;2023-05-07T08:35:36;4.53;;;4.13;;
3433;SDS011;1730;41.932;25.548;2023-05-07T08:38:01;3.60;;;3.30;;
3433;SDS011;1730;41.932;25.548;2023-05-07T08:40:27;3.90;;;3.63;;
3433;SDS011;1730;41.932;25.548;2023-05-07T08:42:54;3.40;;;3.20;;
3433;SDS011;1730;41.932;25.548;2023-05-07T08:45:21;4.20;;;3.50;;
3433;SDS011;1730;41.932;25.548;2023-05-07T08:47:50;3.10;;;2.90;;
3433;SDS011;1730;41.932;25.548;2023-05-07T08:50:23;5.60;;;2.77;;
3433;SDS011;1730;41.932;25.548;2023-05-07T08:52:49;2.73;;;2.53;;
3433;SDS011;1730;41.932;25.548;2023-05-07T08:55:14;3.50;;;3.17;;
3433;SDS011;1730;41.932;25.548;2023-05-07T08:57:40;3.20;;;2.83;;
3433;SDS011;1730;41.932;25.548;2023-05-07T09:00:06;4.30;;;2.97;;
3433;SDS011;1730;41.932;25.548;2023-05-07T09:02:32;3.53;;;3.23;;
3433;SDS011;1730;41.932;25.548;2023-05-07T09:04:59;3.20;;;3.00;;
3433;SDS011;1730;41.932;25.548;2023-05-07T09:07:25;6.13;;;3.30;;
3433;SDS011;1730;41.932;25.548;2023-05-07T09:09:51;5.43;;;2.97;;
3433;SDS011;1730;41.932;25.548;2023-05-07T09:12:17;3.50;;;3.17;;
3433;SDS011;1730;41.932;25.548;2023-05-07T09:14:43;2.97;;;2.30;;
3433;SDS011;1730;41.932;25.548;2023-05-07T09:17:09;4.47;;;2.40;;
3433;SDS011;1730;41.932;25.548;2023-05-07T09:19:34;3.20;;;3.00;;
3433;SDS011;1730;41.932;25.548;2023-05-07T09:22:01;5.03;;;2.87;;
3433;SDS011;1730;41.932;25.548;2023-05-07T09:24:28;4.37;;;3.03;;
3433;SDS011;1730;41.932;25.548;2023-05-07T09:26:58;3.07;;;2.80;;
3433;SDS011;1730;41.932;25.548;2023-05-07T09:29:25;4.40;;;2.90;;
3433;SDS011;1730;41.932;25.548;2023-05-07T09:31:51;4.00;;;2.87;;
3433;SDS011;1730;41.932;25.548;2023-05-07T09:34:16;4.67;;;2.93;;
3433;SDS011;1730;41.932;25.548;2023-05-07T09:36:42;3.40;;;3.00;;
3433;SDS011;1730;41.932;25.548;2023-05-07T09:39:07;4.07;;;2.83;;
3433;SDS011;1730;41.932;25.548;2023-05-07T09:41:33;8.70;;;2.80;;
3433;SDS011;1730;41.932;25.548;2023-05-07T09:44:09;4.60;;;3.03;;
3433;SDS011;1730;41.932;25.548;2023-05-07T09:46:34;3.80;;;2.60;;
3433;SDS011;1730;41.932;25.548;2023-05-07T09:49:02;4.23;;;3.07;;
3433;SDS011;1730;41.932;25.548;2023-05-07T09:51:33;3.37;;;3.07;;
3433;SDS011;1730;41.932;25.548;2023-05-07T09:54:06;3.03;;;2.80;;
3433;SDS011;1730;41.932;25.548;2023-05-07T09:56:32;5.30;;;3.00;;
3433;SDS011;1730;41.932;25.548;2023-05-07T09:59:01;6.27;;;3.30;;
3433;SDS011;1730;41.932;25.548;2023-05-07T10:01:29;3.50;;;2.70;;
3433;SDS011;1730;41.932;25.548;2023-05-07T10:03:56;3.30;;;3.00;;
3433;SDS011;1730;41.932;25.548;2023-05-07T10:06:24;3.07;;;2.87;;
3433;SDS011;1730;41.932;25.548;2023-05-07T10:08:51;7.03;;;3.20;;
3433;SDS011;1730;41.932;25.548;2023-05-07T10:11:17;2.90;;;2.60;;
3433;SDS011;1730;41.932;25.548;2023-05-07T10:13:43;4.90;;;2.73;;
3433;SDS011;1730;41.932;25.548;2023-05-07T10:16:09;4.17;;;2.67;;
3433;SDS011;1730;41.932;25.548;2023-05-07T10:18:34;3.90;;;2.40;;
3433;SDS011;1730;41.932;25.548;2023-05-07T10:21:19;8.83;;;3.17;;
3433;SDS011;1730;41.932;25.548;2023-05-07T10:24:08;3.10;;;2.20;;
3433;SDS011;1730;41.932;25.548;2023-05-07T10:26:42;2.53;;;2.33;;
3433;SDS011;1730;41.932;25.548;2023-05-07T10:29:12;3.30;;;2.67;;
3433;SDS011;1730;41.932;25.548;2023-05-07T10:34:30;2.20;;;2.00;;
3433;SDS011;1730;41.932;25.548;2023-05-07T10:37:00;3.00;;;2.10;;
3433;SDS011;1730;41.932;25.548;2023-05-07T10:39:28;3.30;;;2.23;;
3433;SDS011;1730;41.932;25.548;2023-05-07T10:41:53;4.60;;;1.97;;
3433;SDS011;1730;41.932;25.548;2023-05-07T10:44:26;2.30;;;1.90;;
3433;SDS011;1730;41.932;25.548;2023-05-07T10:47:06;2.43;;;2.27;;
3433;SDS011;1730;41.932;25.548;2023-05-07T10:49:34;3.30;;;2.20;;
3433;SDS011;1730;41.932;25.548;2023-05-07T10:54:38;1.90;;;1.80;;
3433;SDS011;1730;41.932;25.548;2023-05-07T10:59:54;5.50;;;2.37;;
3433;SDS011;1730;41.932;25.548;2023-05-07T11:02:20;2.33;;;2.13;;
3433;SDS011;1730;41.932;25.548;2023-05-07T11:04:45;1.90;;;1.80;;
3433;SDS011;1730;41.932;25.548;2023-05-07T11:08:08;4.77;;;2.30;;
3433;SDS011;1730;41.932;25.548;2023-05-07T11:10:52;7.07;;;2.07;;
3433;SDS011;1730;41.932;25.548;2023-05-07T11:16:17;2.80;;;2.13;;
3433;SDS011;1730;41.932;25.548;2023-05-07T11:18:56;3.40;;;2.27;;
3433;SDS011;1730;41.932;25.548;2023-05-07T11:21:41;2.20;;;1.97;;
3433;SDS011;1730;41.932;25.548;2023-05-07T11:24:07;2.67;;;2.47;;
3433;SDS011;1730;41.932;25.548;2023-05-07T11:26:44;2.27;;;1.77;;
3433;SDS011;1730;41.932;25.548;2023-05-07T11:29:15;3.70;;;2.87;;
3433;SDS011;1730;41.932;25.548;2023-05-07T11:31:42;4.50;;;2.00;;
3433;SDS011;1730;41.932;25.548;2023-05-07T11:34:08;2.00;;;1.90;;
3433;SDS011;1730;41.932;25.548;2023-05-07T11:36:34;13.73;;;4.40;;
3433;SDS011;1730;41.932;25.548;2023-05-07T11:39:20;4.83;;;2.40;;
3433;SDS011;1730;41.932;25.548;2023-05-07T11:41:52;2.80;;;1.90;;
3433;SDS011;1730;41.932;25.548;2023-05-07T11:44:17;5.80;;;2.30;;
3433;SDS011;1730;41.932;25.548;2023-05-07T11:46:43;4.50;;;1.83;;
3433;SDS011;1730;41.932;25.548;2023-05-07T11:49:09;4.33;;;2.03;;
3433;SDS011;1730;41.932;25.548;2023-05-07T11:51:35;6.20;;;2.40;;
3433;SDS011;1730;41.932;25.548;2023-05-07T11:54:03;4.53;;;2.17;;
3433;SDS011;1730;41.932;25.548;2023-05-07T11:56:29;1.90;;;1.80;;
3433;SDS011;1730;41.932;25.548;2023-05-07T11:58:59;5.23;;;2.40;;
3433;SDS011;1730;41.932;25.548;2023-05-07T12:01:24;2.10;;;1.90;;
3433;SDS011;1730;41.932;25.548;2023-05-07T12:03:50;2.43;;;2.10;;
3433;SDS011;1730;41.932;25.548;2023-05-07T12:06:16;2.90;;;2.50;;
3433;SDS011;1730;41.932;25.548;2023-05-07T12:08:42;2.23;;;1.80;;
3433;SDS011;1730;41.932;25.548;2023-05-07T12:11:10;2.90;;;2.40;;
3433;SDS011;1730;41.932;25.548;2023-05-07T12:13:39;2.30;;;2.10;;
3433;SDS011;1730;41.932;25.548;2023-05-07T12:16:05;4.67;;;2.20;;
3433;SDS011;1730;41.932;25.548;2023-05-07T12:18:32;8.60;;;1.90;;
3433;SDS011;1730;41.932;25.548;2023-05-07T12:20:59;2.53;;;1.53;;
3433;SDS011;1730;41.932;25.548;2023-05-07T12:23:25;3.57;;;1.77;;
3433;SDS011;1730;41.932;25.548;2023-05-07T12:25:51;3.70;;;1.73;;
3433;SDS011;1730;41.932;25.548;2023-05-07T12:28:16;3.00;;;2.03;;
3433;SDS011;1730;41.932;25.548;2023-05-07T12:30:44;2.33;;;1.90;;
3433;SDS011;1730;41.932;25.548;2023-05-07T12:33:17;3.83;;;2.07;;
3433;SDS011;1730;41.932;25.548;2023-05-07T12:35:46;6.80;;;2.70;;
3433;SDS011;1730;41.932;25.548;2023-05-07T12:38:13;2.80;;;1.90;;
3433;SDS011;1730;41.932;25.548;2023-05-07T12:40:46;2.20;;;2.00;;
3433;SDS011;1730;41.932;25.548;2023-05-07T12:43:18;2.77;;;1.83;;
3433;SDS011;1730;41.932;25.548;2023-05-07T12:45:49;2.40;;;2.20;;
3433;SDS011;1730;41.932;25.548;2023-05-07T12:48:16;1.90;;;1.77;;
3433;SDS011;1730;41.932;25.548;2023-05-07T12:50:42;2.40;;;2.20;;
3433;SDS011;1730;41.932;25.548;2023-05-07T12:53:09;3.93;;;2.30;;
3433;SDS011;1730;41.932;25.548;2023-05-07T12:55:46;3.83;;;2.17;;
3433;SDS011;1730;41.932;25.548;2023-05-07T12:58:17;3.73;;;2.30;;
3433;SDS011;1730;41.932;25.548;2023-05-07T13:00:43;2.20;;;2.00;;
3433;SDS011;1730;41.932;25.548;2023-05-07T13:03:10;2.67;;;1.93;;
3433;SDS011;1730;41.932;25.548;2023-05-07T13:05:36;2.10;;;1.90;;
3433;SDS011;1730;41.932;25.548;2023-05-07T13:08:02;2.37;;;1.80;;
3433;SDS011;1730;41.932;25.548;2023-05-07T13:10:27;2.30;;;2.10;;
3433;SDS011;1730;41.932;25.548;2023-05-07T13:12:54;4.13;;;1.87;;
3433;SDS011;1730;41.932;25.548;2023-05-07T13:15:19;2.77;;;1.80;;
3433;SDS011;1730;41.932;25.548;2023-05-07T13:17:45;4.83;;;1.80;;
3433;SDS011;1730;41.932;25.548;2023-05-07T13:20:10;2.10;;;1.90;;
3433;SDS011;1730;41.932;25.548;2023-05-07T13:22:37;2.13;;;1.93;;
3433;SDS011;1730;41.932;25.548;2023-05-07T13:25:04;2.73;;;2.23;;
3433;SDS011;1730;41.932;25.548;2023-05-07T13:27:30;10.37;;;2.00;;
3433;SDS011;1730;41.932;25.548;2023-05-07T13:29:56;3.40;;;1.77;;
3433;SDS011;1730;41.932;25.548;2023-05-07T13:32:21;2.17;;;1.97;;
3433;SDS011;1730;41.932;25.548;2023-05-07T13:34:47;2.03;;;1.80;;
3433;SDS011;1730;41.932;25.548;2023-05-07T13:37:12;2.50;;;1.93;;
3433;SDS011;1730;41.932;25.548;2023-05-07T13:39:38;1.70;;;1.60;;
3433;SDS011;1730;41.932;25.548;2023-05-07T13:42:03;2.80;;;2.10;;
3433;SDS011;1730;41.932;25.548;2023-05-07T13:44:29;1.93;;;1.73;;
3433;SDS011;1730;41.932;25.548;2023-05-07T13:46:54;2.40;;;2.00;;
3433;SDS011;1730;41.932;25.548;2023-05-07T13:49:20;5.30;;;1.80;;
3433;SDS011;1730;41.932;25.548;2023-05-07T13:51:45;2.70;;;2.03;;
3433;SDS011;1730;41.932;25.548;2023-05-07T13:54:11;4.80;;;1.90;;
3433;SDS011;1730;41.932;25.548;2023-05-07T13:56:36;2.63;;;2.17;;
3433;SDS011;1730;41.932;25.548;2023-05-07T13:59:02;10.50;;;2.20;;
3433;SDS011;1730;41.932;25.548;2023-05-07T14:01:27;6.17;;;2.10;;
3433;SDS011;1730;41.932;25.548;2023-05-07T14:03:53;2.37;;;2.00;;
3433;SDS011;1730;41.932;25.548;2023-05-07T14:06:18;3.70;;;2.40;;
3433;SDS011;1730;41.932;25.548;2023-05-07T14:08:44;2.07;;;1.97;;
3433;SDS011;1730;41.932;25.548;2023-05-07T14:11:10;2.30;;;1.90;;
3433;SDS011;1730;41.932;25.548;2023-05-07T14:13:35;2.53;;;1.90;;
3433;SDS011;1730;41.932;25.548;2023-05-07T14:16:02;3.30;;;2.00;;
3433;SDS011;1730;41.932;25.548;2023-05-07T14:18:29;3.40;;;2.30;;
3433;SDS011;1730;41.932;25.548;2023-05-07T14:20:54;3.33;;;2.20;;
3433;SDS011;1730;41.932;25.548;2023-05-07T14:23:20;3.27;;;2.97;;
3433;SDS011;1730;41.932;25.548;2023-05-07T14:25:51;2.60;;;1.70;;
3433;SDS011;1730;41.932;25.548;2023-05-07T14:28:19;3.60;;;2.20;;
3433;SDS011;1730;41.932;25.548;2023-05-07T14:30:45;8.43;;;2.50;;
3433;SDS011;1730;41.932;25.548;2023-05-07T14:33:10;2.20;;;2.00;;
3433;SDS011;1730;41.932;25.548;2023-05-07T14:35:36;7.60;;;2.27;;
3433;SDS011;1730;41.932;25.548;2023-05-07T14:38:01;6.40;;;2.10;;
3433;SDS011;1730;41.932;25.548;2023-05-07T14:40:27;12.47;;;4.03;;
3433;SDS011;1730;41.932;25.548;2023-05-07T14:42:52;3.67;;;2.30;;
3433;SDS011;1730;41.932;25.548;2023-05-07T14:45:18;1.80;;;1.70;;
3433;SDS011;1730;41.932;25.548;2023-05-07T14:47:46;4.90;;;1.90;;
3433;SDS011;1730;41.932;25.548;2023-05-07T14:50:11;2.73;;;2.00;;
3433;SDS011;1730;41.932;25.548;2023-05-07T14:52:37;3.03;;;1.60;;
3433;SDS011;1730;41.932;25.548;2023-05-07T14:55:02;4.20;;;2.10;;
3433;SDS011;1730;41.932;25.548;2023-05-07T14:57:28;1.77;;;1.67;;
3433;SDS011;1730;41.932;25.548;2023-05-07T14:59:54;8.93;;;1.90;;
3433;SDS011;1730;41.932;25.548;2023-05-07T15:02:20;2.80;;;2.17;;
3433;SDS011;1730;41.932;25.548;2023-05-07T15:04:45;7.40;;;1.90;;
3433;SDS011;1730;41.932;25.548;2023-05-07T15:07:11;2.40;;;1.73;;
3433;SDS011;1730;41.932;25.548;2023-05-07T15:09:40;2.90;;;1.90;;
3433;SDS011;1730;41.932;25.548;2023-05-07T15:12:09;2.10;;;1.77;;